LFMD/CEQ METAR and TAF weather

Enter ICAO airport designator
Station Type Date Time Source
LFMD METAR 2022/06/25 23:00 UTC NOAA

LFMD 252300Z AUTO VRB02KT 9999 OVC100 23/20 Q1013


Station Type Date Time Source
LFMD Decoded METAR 2022/06/25 23:00 UTC NOAA

Cannes, France (LFMD) 43-33N 006-57E 9M
Jun 25, 2022 - 07:00 PM EDT / 2022.06.25 2300 UTC
Wind: Variable at 2 MPH (2 KT):0
Visibility: greater than 7 mile(s):0
Sky conditions: overcast
Temperature: 73 F (23 C)
Dew Point: 68 F (20 C)
Relative Humidity: 83%
Pressure (altimeter): 29.91 in. Hg (1013 hPa)
ob: LFMD 252300Z AUTO VRB02KT 9999 OVC100 23/20 Q1013
cycle: 23

Station Type Date Time Source
LFMD TAF 2022/06/25 21:08 UTC NOAA

TAF LFMD 252102Z 2521/2615 CNL

Example: see airport list